sensor_id;sensor_type;location;lat;lon;timestamp;pressure;altitude;pressure_sealevel;temperature;humidity
68179;BME280;69812;42.632;23.440;2024-02-21T00:01:28;95760.56;;;3.50;89.11
68179;BME280;69812;42.632;23.440;2024-02-21T00:03:55;95774.06;;;3.51;89.17
68179;BME280;69812;42.632;23.440;2024-02-21T00:06:21;95769.97;;;3.48;88.77
68179;BME280;69812;42.632;23.440;2024-02-21T00:08:46;95765.94;;;3.44;89.36
68179;BME280;69812;42.632;23.440;2024-02-21T00:11:16;95762.34;;;3.48;89.69
68179;BME280;69812;42.632;23.440;2024-02-21T00:13:42;95748.09;;;3.46;88.98
68179;BME280;69812;42.632;23.440;2024-02-21T00:16:07;95754.75;;;3.48;88.75
68179;BME280;69812;42.632;23.440;2024-02-21T00:18:33;95746.38;;;3.46;88.30
68179;BME280;69812;42.632;23.440;2024-02-21T00:20:58;95749.16;;;3.42;87.85
68179;BME280;69812;42.632;23.440;2024-02-21T00:23:24;95745.28;;;3.35;88.18
68179;BME280;69812;42.632;23.440;2024-02-21T00:25:49;95743.31;;;3.40;88.84
68179;BME280;69812;42.632;23.440;2024-02-21T00:28:15;95757.88;;;3.54;88.25
68179;BME280;69812;42.632;23.440;2024-02-21T00:30:40;95758.25;;;3.46;87.88
68179;BME280;69812;42.632;23.440;2024-02-21T00:33:08;95742.72;;;3.35;88.47
68179;BME280;69812;42.632;23.440;2024-02-21T00:35:33;95749.97;;;3.42;87.39
68179;BME280;69812;42.632;23.440;2024-02-21T00:38:01;95752.06;;;3.34;88.20
68179;BME280;69812;42.632;23.440;2024-02-21T00:40:28;95756.16;;;3.37;88.39
68179;BME280;69812;42.632;23.440;2024-02-21T00:42:54;95729.81;;;3.22;88.01
68179;BME280;69812;42.632;23.440;2024-02-21T00:45:22;95750.41;;;3.33;88.09
68179;BME280;69812;42.632;23.440;2024-02-21T00:47:48;95743.59;;;3.16;88.54
68179;BME280;69812;42.632;23.440;2024-02-21T00:50:13;95744.22;;;3.21;88.80
68179;BME280;69812;42.632;23.440;2024-02-21T00:52:39;95738.94;;;3.26;89.26
68179;BME280;69812;42.632;23.440;2024-02-21T00:55:05;95745.50;;;3.30;89.24
68179;BME280;69812;42.632;23.440;2024-02-21T00:57:32;95748.56;;;3.37;88.99
68179;BME280;69812;42.632;23.440;2024-02-21T01:00:02;95739.66;;;3.28;89.31
68179;BME280;69812;42.632;23.440;2024-02-21T01:02:28;95736.09;;;3.32;88.83
68179;BME280;69812;42.632;23.440;2024-02-21T01:04:53;95739.16;;;3.39;88.95
68179;BME280;69812;42.632;23.440;2024-02-21T01:07:21;95736.63;;;3.39;89.20
68179;BME280;69812;42.632;23.440;2024-02-21T01:09:47;95738.63;;;3.32;89.04
68179;BME280;69812;42.632;23.440;2024-02-21T01:12:12;95738.31;;;3.38;89.77
68179;BME280;69812;42.632;23.440;2024-02-21T01:14:37;95729.88;;;3.38;89.58
68179;BME280;69812;42.632;23.440;2024-02-21T01:17:05;95738.19;;;3.41;90.05
68179;BME280;69812;42.632;23.440;2024-02-21T01:19:31;95718.09;;;3.37;89.06
68179;BME280;69812;42.632;23.440;2024-02-21T01:21:56;95725.44;;;3.43;89.01
68179;BME280;69812;42.632;23.440;2024-02-21T01:24:22;95726.00;;;3.48;88.40
68179;BME280;69812;42.632;23.440;2024-02-21T01:26:47;95721.75;;;3.31;87.80
68179;BME280;69812;42.632;23.440;2024-02-21T01:29:13;95721.47;;;3.37;87.76
68179;BME280;69812;42.632;23.440;2024-02-21T01:31:38;95715.06;;;3.30;88.42
68179;BME280;69812;42.632;23.440;2024-02-21T01:34:03;95705.19;;;3.41;88.15
68179;BME280;69812;42.632;23.440;2024-02-21T01:36:29;95707.72;;;3.41;87.80
68179;BME280;69812;42.632;23.440;2024-02-21T01:38:56;95704.91;;;3.30;88.14
68179;BME280;69812;42.632;23.440;2024-02-21T01:41:22;95730.69;;;3.38;88.42
68179;BME280;69812;42.632;23.440;2024-02-21T01:43:47;95709.81;;;3.33;87.96
68179;BME280;69812;42.632;23.440;2024-02-21T01:46:15;95706.00;;;3.24;88.84
68179;BME280;69812;42.632;23.440;2024-02-21T01:48:43;95713.41;;;3.29;89.12
68179;BME280;69812;42.632;23.440;2024-02-21T01:51:11;95704.69;;;3.17;89.51
68179;BME280;69812;42.632;23.440;2024-02-21T01:53:38;95696.09;;;3.20;89.88
68179;BME280;69812;42.632;23.440;2024-02-21T01:56:06;95708.63;;;3.23;88.95
68179;BME280;69812;42.632;23.440;2024-02-21T01:58:33;95708.78;;;3.20;88.58
68179;BME280;69812;42.632;23.440;2024-02-21T02:01:04;95703.41;;;3.08;88.98
68179;BME280;69812;42.632;23.440;2024-02-21T02:03:33;95706.81;;;3.07;88.97
68179;BME280;69812;42.632;23.440;2024-02-21T02:05:59;95704.56;;;3.01;89.14
68179;BME280;69812;42.632;23.440;2024-02-21T02:08:26;95692.28;;;2.94;89.57
68179;BME280;69812;42.632;23.440;2024-02-21T02:10:52;95695.16;;;2.86;90.44
68179;BME280;69812;42.632;23.440;2024-02-21T02:13:20;95706.59;;;2.95;91.44
68179;BME280;69812;42.632;23.440;2024-02-21T02:15:48;95702.66;;;3.06;90.59
68179;BME280;69812;42.632;23.440;2024-02-21T02:18:15;95704.72;;;2.98;91.05
68179;BME280;69812;42.632;23.440;2024-02-21T02:20:41;95692.81;;;3.00;91.24
68179;BME280;69812;42.632;23.440;2024-02-21T02:23:10;95703.19;;;3.13;90.25
68179;BME280;69812;42.632;23.440;2024-02-21T02:25:36;95704.97;;;3.46;87.35
68179;BME280;69812;42.632;23.440;2024-02-21T02:28:03;95698.03;;;3.32;87.32
68179;BME280;69812;42.632;23.440;2024-02-21T02:30:32;95702.72;;;3.22;87.85
68179;BME280;69812;42.632;23.440;2024-02-21T02:32:58;95688.19;;;3.26;88.31
68179;BME280;69812;42.632;23.440;2024-02-21T02:35:26;95699.31;;;3.23;88.91
68179;BME280;69812;42.632;23.440;2024-02-21T02:37:59;95693.91;;;3.12;89.15
68179;BME280;69812;42.632;23.440;2024-02-21T02:40:26;95699.84;;;3.13;89.46
68179;BME280;69812;42.632;23.440;2024-02-21T02:42:54;95699.91;;;3.11;89.55
68179;BME280;69812;42.632;23.440;2024-02-21T02:45:21;95696.09;;;3.02;90.02
68179;BME280;69812;42.632;23.440;2024-02-21T02:47:54;95682.72;;;2.99;89.69
68179;BME280;69812;42.632;23.440;2024-02-21T02:50:20;95683.84;;;2.93;89.86
68179;BME280;69812;42.632;23.440;2024-02-21T02:52:45;95692.97;;;2.97;89.83
68179;BME280;69812;42.632;23.440;2024-02-21T02:55:11;95690.03;;;2.87;89.89
68179;BME280;69812;42.632;23.440;2024-02-21T02:57:37;95682.41;;;2.87;89.89
68179;BME280;69812;42.632;23.440;2024-02-21T03:00:03;95680.56;;;2.91;89.88
68179;BME280;69812;42.632;23.440;2024-02-21T03:02:32;95690.72;;;3.08;88.96
68179;BME280;69812;42.632;23.440;2024-02-21T03:04:57;95679.66;;;3.09;87.98
68179;BME280;69812;42.632;23.440;2024-02-21T03:07:24;95698.47;;;3.40;87.23
68179;BME280;69812;42.632;23.440;2024-02-21T03:09:52;95686.53;;;3.25;88.05
68179;BME280;69812;42.632;23.440;2024-02-21T03:12:18;95704.38;;;3.23;88.10
68179;BME280;69812;42.632;23.440;2024-02-21T03:14:50;95687.16;;;3.13;89.06
68179;BME280;69812;42.632;23.440;2024-02-21T03:17:15;95703.13;;;3.15;89.75
68179;BME280;69812;42.632;23.440;2024-02-21T03:19:41;95694.31;;;3.04;89.84
68179;BME280;69812;42.632;23.440;2024-02-21T03:22:06;95702.13;;;3.00;90.37
68179;BME280;69812;42.632;23.440;2024-02-21T03:24:33;95707.34;;;2.97;90.53
68179;BME280;69812;42.632;23.440;2024-02-21T03:26:58;95712.19;;;3.19;90.06
68179;BME280;69812;42.632;23.440;2024-02-21T03:29:24;95716.38;;;3.20;89.60
68179;BME280;69812;42.632;23.440;2024-02-21T03:31:50;95704.44;;;3.22;88.95
68179;BME280;69812;42.632;23.440;2024-02-21T03:34:15;95716.09;;;3.26;89.00
68179;BME280;69812;42.632;23.440;2024-02-21T03:36:41;95714.31;;;3.28;89.64
68179;BME280;69812;42.632;23.440;2024-02-21T03:39:13;95715.13;;;3.28;89.75
68179;BME280;69812;42.632;23.440;2024-02-21T03:41:39;95708.72;;;3.21;89.92
68179;BME280;69812;42.632;23.440;2024-02-21T03:44:04;95702.72;;;3.22;89.84
68179;BME280;69812;42.632;23.440;2024-02-21T03:46:32;95721.75;;;3.31;89.68
68179;BME280;69812;42.632;23.440;2024-02-21T03:48:57;95717.72;;;3.27;89.54
68179;BME280;69812;42.632;23.440;2024-02-21T03:51:25;95711.84;;;3.26;89.59
68179;BME280;69812;42.632;23.440;2024-02-21T03:53:51;95707.34;;;3.32;88.60
68179;BME280;69812;42.632;23.440;2024-02-21T03:56:16;95715.19;;;3.27;88.66
68179;BME280;69812;42.632;23.440;2024-02-21T03:58:41;95720.94;;;3.31;88.01
68179;BME280;69812;42.632;23.440;2024-02-21T04:01:07;95718.91;;;3.20;88.50
68179;BME280;69812;42.632;23.440;2024-02-21T04:03:32;95726.47;;;3.21;88.31
68179;BME280;69812;42.632;23.440;2024-02-21T04:05:57;95705.56;;;3.16;88.36
68179;BME280;69812;42.632;23.440;2024-02-21T04:08:23;95724.00;;;3.20;87.86
68179;BME280;69812;42.632;23.440;2024-02-21T04:10:53;95689.34;;;3.01;88.08
68179;BME280;69812;42.632;23.440;2024-02-21T04:13:19;95712.94;;;3.21;87.48
68179;BME280;69812;42.632;23.440;2024-02-21T04:15:44;95714.53;;;3.23;87.81
68179;BME280;69812;42.632;23.440;2024-02-21T04:18:14;95704.97;;;3.11;87.71
68179;BME280;69812;42.632;23.440;2024-02-21T04:20:40;95717.34;;;3.17;87.74
68179;BME280;69812;42.632;23.440;2024-02-21T04:23:13;95713.84;;;3.20;87.74
68179;BME280;69812;42.632;23.440;2024-02-21T04:25:38;95712.34;;;3.16;87.80
68179;BME280;69812;42.632;23.440;2024-02-21T04:28:04;95714.81;;;3.17;87.87
68179;BME280;69812;42.632;23.440;2024-02-21T04:30:29;95714.88;;;3.16;88.08
68179;BME280;69812;42.632;23.440;2024-02-21T04:32:55;95714.44;;;3.07;87.49
68179;BME280;69812;42.632;23.440;2024-02-21T04:35:23;95725.72;;;3.19;87.49
68179;BME280;69812;42.632;23.440;2024-02-21T04:37:49;95703.53;;;3.05;87.22
68179;BME280;69812;42.632;23.440;2024-02-21T04:40:14;95709.06;;;3.14;87.12
68179;BME280;69812;42.632;23.440;2024-02-21T04:42:43;95708.84;;;3.01;87.70
68179;BME280;69812;42.632;23.440;2024-02-21T04:45:11;95723.06;;;3.03;87.90
68179;BME280;69812;42.632;23.440;2024-02-21T04:47:36;95715.31;;;2.89;88.26
68179;BME280;69812;42.632;23.440;2024-02-21T04:50:01;95713.00;;;2.84;88.21
68179;BME280;69812;42.632;23.440;2024-02-21T04:52:29;95702.00;;;2.84;88.36
68179;BME280;69812;42.632;23.440;2024-02-21T04:54:55;95716.78;;;2.76;88.65
68179;BME280;69812;42.632;23.440;2024-02-21T04:57:21;95722.28;;;2.84;89.02
68179;BME280;69812;42.632;23.440;2024-02-21T04:59:47;95723.81;;;2.88;88.56
68179;BME280;69812;42.632;23.440;2024-02-21T05:02:13;95726.84;;;2.77;89.19
68179;BME280;69812;42.632;23.440;2024-02-21T05:04:39;95731.66;;;2.64;90.05
68179;BME280;69812;42.632;23.440;2024-02-21T05:07:07;95724.28;;;2.41;90.90
68179;BME280;69812;42.632;23.440;2024-02-21T05:09:34;95713.25;;;2.23;92.12
68179;BME280;69812;42.632;23.440;2024-02-21T05:12:00;95729.06;;;2.09;92.43
68179;BME280;69812;42.632;23.440;2024-02-21T05:14:26;95737.69;;;2.05;93.62
68179;BME280;69812;42.632;23.440;2024-02-21T05:16:54;95732.97;;;2.16;93.97
68179;BME280;69812;42.632;23.440;2024-02-21T05:19:20;95741.97;;;2.23;93.71
68179;BME280;69812;42.632;23.440;2024-02-21T05:21:45;95727.28;;;2.11;93.98
68179;BME280;69812;42.632;23.440;2024-02-21T05:24:11;95732.56;;;2.25;94.49
68179;BME280;69812;42.632;23.440;2024-02-21T05:26:39;95731.25;;;2.17;94.17
68179;BME280;69812;42.632;23.440;2024-02-21T05:29:04;95734.69;;;2.16;94.06
68179;BME280;69812;42.632;23.440;2024-02-21T05:34:18;95737.13;;;1.98;94.73
68179;BME280;69812;42.632;23.440;2024-02-21T05:36:44;95734.59;;;1.98;94.95
68179;BME280;69812;42.632;23.440;2024-02-21T05:39:10;95743.25;;;2.13;95.54
68179;BME280;69812;42.632;23.440;2024-02-21T05:41:35;95750.28;;;2.25;95.75
68179;BME280;69812;42.632;23.440;2024-02-21T05:44:01;95736.00;;;2.24;95.91
68179;BME280;69812;42.632;23.440;2024-02-21T05:46:28;95741.88;;;2.44;95.57
68179;BME280;69812;42.632;23.440;2024-02-21T05:48:54;95744.13;;;2.69;94.92
68179;BME280;69812;42.632;23.440;2024-02-21T05:51:19;95747.47;;;2.88;92.66
68179;BME280;69812;42.632;23.440;2024-02-21T05:53:45;95756.84;;;2.86;93.05
68179;BME280;69812;42.632;23.440;2024-02-21T05:56:10;95761.00;;;2.87;93.18
68179;BME280;69812;42.632;23.440;2024-02-21T05:58:36;95751.78;;;2.86;92.59
68179;BME280;69812;42.632;23.440;2024-02-21T06:01:02;95761.63;;;2.93;92.92
68179;BME280;69812;42.632;23.440;2024-02-21T06:03:29;95740.25;;;2.79;92.64
68179;BME280;69812;42.632;23.440;2024-02-21T06:05:54;95764.78;;;2.98;92.76
68179;BME280;69812;42.632;23.440;2024-02-21T06:08:20;95750.03;;;3.06;93.08
68179;BME280;69812;42.632;23.440;2024-02-21T06:10:46;95769.88;;;3.15;92.11
68179;BME280;69812;42.632;23.440;2024-02-21T06:13:12;95763.25;;;3.13;91.90
68179;BME280;69812;42.632;23.440;2024-02-21T06:15:40;95775.06;;;3.12;91.44
68179;BME280;69812;42.632;23.440;2024-02-21T06:18:06;95775.44;;;3.04;91.28
68179;BME280;69812;42.632;23.440;2024-02-21T06:20:31;95769.84;;;2.98;92.28
68179;BME280;69812;42.632;23.440;2024-02-21T06:22:57;95773.25;;;2.97;92.34
68179;BME280;69812;42.632;23.440;2024-02-21T06:25:22;95794.97;;;3.21;92.40
68179;BME280;69812;42.632;23.440;2024-02-21T06:27:48;95793.47;;;3.35;91.98
68179;BME280;69812;42.632;23.440;2024-02-21T06:30:16;95776.69;;;3.49;91.75
68179;BME280;69812;42.632;23.440;2024-02-21T06:32:41;95774.44;;;3.78;90.19
68179;BME280;69812;42.632;23.440;2024-02-21T06:35:07;95794.50;;;4.33;88.50
68179;BME280;69812;42.632;23.440;2024-02-21T06:37:32;95795.78;;;4.74;86.19
68179;BME280;69812;42.632;23.440;2024-02-21T06:39:58;95796.75;;;5.19;81.05
68179;BME280;69812;42.632;23.440;2024-02-21T06:42:29;95796.84;;;5.18;81.12
68179;BME280;69812;42.632;23.440;2024-02-21T06:44:54;95801.59;;;5.24;81.21
68179;BME280;69812;42.632;23.440;2024-02-21T06:47:21;95800.19;;;5.34;81.10
68179;BME280;69812;42.632;23.440;2024-02-21T06:49:50;95796.78;;;5.49;79.43
68179;BME280;69812;42.632;23.440;2024-02-21T06:52:19;95788.06;;;5.84;79.96
68179;BME280;69812;42.632;23.440;2024-02-21T06:54:49;95797.16;;;5.88;79.12
68179;BME280;69812;42.632;23.440;2024-02-21T06:57:14;95811.78;;;6.72;76.41
68179;BME280;69812;42.632;23.440;2024-02-21T06:59:41;95814.22;;;6.88;72.54
68179;BME280;69812;42.632;23.440;2024-02-21T07:02:09;95814.22;;;6.88;74.19
68179;BME280;69812;42.632;23.440;2024-02-21T07:04:34;95814.00;;;7.05;73.27
68179;BME280;69812;42.632;23.440;2024-02-21T07:07:00;95800.84;;;6.70;73.34
68179;BME280;69812;42.632;23.440;2024-02-21T07:09:26;95801.47;;;6.73;73.94
68179;BME280;69812;42.632;23.440;2024-02-21T07:11:53;95807.88;;;6.66;74.31
68179;BME280;69812;42.632;23.440;2024-02-21T07:14:19;95798.47;;;5.65;78.93
68179;BME280;69812;42.632;23.440;2024-02-21T07:16:44;95805.50;;;6.34;77.63
68179;BME280;69812;42.632;23.440;2024-02-21T07:19:10;95805.78;;;6.73;75.91
68179;BME280;69812;42.632;23.440;2024-02-21T07:21:35;95808.19;;;6.89;74.98
68179;BME280;69812;42.632;23.440;2024-02-21T07:24:03;95819.41;;;7.28;72.21
68179;BME280;69812;42.632;23.440;2024-02-21T07:26:30;95800.31;;;7.06;73.15
68179;BME280;69812;42.632;23.440;2024-02-21T07:28:58;95818.56;;;7.54;73.19
68179;BME280;69812;42.632;23.440;2024-02-21T07:31:23;95818.34;;;7.85;70.03
68179;BME280;69812;42.632;23.440;2024-02-21T07:33:49;95814.28;;;8.20;68.73
68179;BME280;69812;42.632;23.440;2024-02-21T07:36:15;95806.66;;;8.46;68.00
68179;BME280;69812;42.632;23.440;2024-02-21T07:38:40;95804.25;;;8.30;65.75
68179;BME280;69812;42.632;23.440;2024-02-21T07:41:06;95804.63;;;8.88;64.56
68179;BME280;69812;42.632;23.440;2024-02-21T07:43:32;95805.47;;;8.76;64.19
68179;BME280;69812;42.632;23.440;2024-02-21T07:45:57;95813.19;;;9.00;64.36
68179;BME280;69812;42.632;23.440;2024-02-21T07:48:22;95801.19;;;8.76;64.67
68179;BME280;69812;42.632;23.440;2024-02-21T07:50:52;95810.28;;;8.80;64.37
68179;BME280;69812;42.632;23.440;2024-02-21T07:53:17;95807.81;;;8.79;63.08
68179;BME280;69812;42.632;23.440;2024-02-21T07:55:43;95809.06;;;8.73;63.26
68179;BME280;69812;42.632;23.440;2024-02-21T07:58:08;95801.28;;;8.23;65.32
68179;BME280;69812;42.632;23.440;2024-02-21T08:00:33;95812.16;;;8.53;67.14
68179;BME280;69812;42.632;23.440;2024-02-21T08:02:59;95803.03;;;8.74;66.26
68179;BME280;69812;42.632;23.440;2024-02-21T08:05:24;95796.88;;;8.77;65.10
68179;BME280;69812;42.632;23.440;2024-02-21T08:07:50;95805.28;;;8.66;66.49
68179;BME280;69812;42.632;23.440;2024-02-21T08:10:15;95792.16;;;8.71;65.19
68179;BME280;69812;42.632;23.440;2024-02-21T08:12:41;95806.91;;;9.04;64.58
68179;BME280;69812;42.632;23.440;2024-02-21T08:15:08;95811.53;;;8.62;65.67
68179;BME280;69812;42.632;23.440;2024-02-21T08:17:36;95810.91;;;8.46;66.63
68179;BME280;69812;42.632;23.440;2024-02-21T08:20:02;95809.84;;;8.74;64.79
68179;BME280;69812;42.632;23.440;2024-02-21T08:22:28;95808.47;;;8.31;66.55
68179;BME280;69812;42.632;23.440;2024-02-21T08:24:53;95809.59;;;8.27;66.55
68179;BME280;69812;42.632;23.440;2024-02-21T08:27:19;95808.34;;;8.58;67.86
68179;BME280;69812;42.632;23.440;2024-02-21T08:29:44;95790.03;;;8.64;64.87
68179;BME280;69812;42.632;23.440;2024-02-21T08:32:10;95796.16;;;8.36;66.15
68179;BME280;69812;42.632;23.440;2024-02-21T08:34:38;95798.84;;;8.09;66.46
68179;BME280;69812;42.632;23.440;2024-02-21T08:37:03;95781.22;;;8.30;67.75
68179;BME280;69812;42.632;23.440;2024-02-21T08:39:29;95785.84;;;8.38;65.59
68179;BME280;69812;42.632;23.440;2024-02-21T08:41:56;95796.31;;;8.84;65.24
68179;BME280;69812;42.632;23.440;2024-02-21T08:44:27;95799.53;;;8.62;65.26
68179;BME280;69812;42.632;23.440;2024-02-21T08:46:52;95785.97;;;8.49;64.51
68179;BME280;69812;42.632;23.440;2024-02-21T08:49:18;95797.19;;;8.72;65.77
68179;BME280;69812;42.632;23.440;2024-02-21T08:51:43;95786.09;;;8.84;62.90
68179;BME280;69812;42.632;23.440;2024-02-21T08:54:08;95786.88;;;8.98;62.82
68179;BME280;69812;42.632;23.440;2024-02-21T08:56:34;95799.25;;;9.28;61.47
68179;BME280;69812;42.632;23.440;2024-02-21T08:59:00;95783.25;;;9.37;61.59
68179;BME280;69812;42.632;23.440;2024-02-21T09:01:26;95781.69;;;9.11;61.06
68179;BME280;69812;42.632;23.440;2024-02-21T09:03:51;95791.22;;;8.72;64.00
68179;BME280;69812;42.632;23.440;2024-02-21T09:06:19;95791.69;;;9.02;61.09
68179;BME280;69812;42.632;23.440;2024-02-21T09:08:45;95791.81;;;9.60;60.29
68179;BME280;69812;42.632;23.440;2024-02-21T09:11:11;95786.97;;;9.69;60.05
68179;BME280;69812;42.632;23.440;2024-02-21T09:13:37;95787.41;;;9.98;58.18
68179;BME280;69812;42.632;23.440;2024-02-21T09:16:05;95787.06;;;10.02;57.86
68179;BME280;69812;42.632;23.440;2024-02-21T09:18:31;95788.28;;;9.74;57.39
68179;BME280;69812;42.632;23.440;2024-02-21T09:20:56;95795.47;;;10.16;55.99
68179;BME280;69812;42.632;23.440;2024-02-21T09:23:24;95801.41;;;10.16;56.52
68179;BME280;69812;42.632;23.440;2024-02-21T09:25:49;95799.53;;;9.36;57.45
68179;BME280;69812;42.632;23.440;2024-02-21T09:28:15;95774.88;;;8.74;58.24
68179;BME280;69812;42.632;23.440;2024-02-21T09:30:40;95774.81;;;8.37;60.54
68179;BME280;69812;42.632;23.440;2024-02-21T09:33:05;95776.19;;;8.67;60.36
68179;BME280;69812;42.632;23.440;2024-02-21T09:35:31;95780.44;;;8.42;59.40
68179;BME280;69812;42.632;23.440;2024-02-21T09:37:58;95782.06;;;8.31;61.81
68179;BME280;69812;42.632;23.440;2024-02-21T09:40:24;95773.78;;;8.40;60.57
68179;BME280;69812;42.632;23.440;2024-02-21T09:43:02;95782.06;;;8.43;59.65
68179;BME280;69812;42.632;23.440;2024-02-21T09:45:34;95789.22;;;8.51;59.83
68179;BME280;69812;42.632;23.440;2024-02-21T09:50:43;95783.97;;;9.86;56.89
68179;BME280;69812;42.632;23.440;2024-02-21T09:53:12;95790.03;;;9.50;57.24
68179;BME280;69812;42.632;23.440;2024-02-21T09:55:39;95778.97;;;9.01;58.64
68179;BME280;69812;42.632;23.440;2024-02-21T09:58:09;95779.88;;;8.63;59.65
68179;BME280;69812;42.632;23.440;2024-02-21T10:00:40;95784.50;;;8.71;60.78
68179;BME280;69812;42.632;23.440;2024-02-21T10:03:05;95778.69;;;8.56;59.96
68179;BME280;69812;42.632;23.440;2024-02-21T10:05:34;95770.53;;;9.12;60.72
68179;BME280;69812;42.632;23.440;2024-02-21T10:08:00;95783.22;;;8.89;59.25
68179;BME280;69812;42.632;23.440;2024-02-21T10:10:26;95760.59;;;8.59;59.51
68179;BME280;69812;42.632;23.440;2024-02-21T10:12:55;95772.16;;;9.13;59.15
68179;BME280;69812;42.632;23.440;2024-02-21T10:15:22;95766.19;;;9.01;57.43
68179;BME280;69812;42.632;23.440;2024-02-21T10:18:01;95781.31;;;9.28;57.85
68179;BME280;69812;42.632;23.440;2024-02-21T10:20:27;95759.91;;;10.00;56.73
68179;BME280;69812;42.632;23.440;2024-02-21T10:23:07;95774.09;;;9.93;56.71
68179;BME280;69812;42.632;23.440;2024-02-21T10:25:36;95766.31;;;9.59;56.15
68179;BME280;69812;42.632;23.440;2024-02-21T10:28:08;95766.78;;;9.53;55.80
68179;BME280;69812;42.632;23.440;2024-02-21T10:30:33;95761.75;;;9.51;56.75
68179;BME280;69812;42.632;23.440;2024-02-21T10:32:59;95741.03;;;9.54;53.81
68179;BME280;69812;42.632;23.440;2024-02-21T10:35:29;95738.06;;;9.83;54.84
68179;BME280;69812;42.632;23.440;2024-02-21T10:37:57;95746.38;;;9.98;53.51
68179;BME280;69812;42.632;23.440;2024-02-21T10:40:27;95743.28;;;10.51;53.18
68179;BME280;69812;42.632;23.440;2024-02-21T10:43:00;95726.94;;;10.29;51.78
68179;BME280;69812;42.632;23.440;2024-02-21T10:48:08;95721.91;;;9.47;54.34
68179;BME280;69812;42.632;23.440;2024-02-21T10:53:41;95728.22;;;9.54;52.80
68179;BME280;69812;42.632;23.440;2024-02-21T10:59:01;95702.66;;;9.06;50.52
68179;BME280;69812;42.632;23.440;2024-02-21T11:01:26;95704.06;;;8.86;52.36
68179;BME280;69812;42.632;23.440;2024-02-21T11:03:55;95704.47;;;8.93;52.95
68179;BME280;69812;42.632;23.440;2024-02-21T11:06:22;95699.66;;;8.64;53.95
68179;BME280;69812;42.632;23.440;2024-02-21T11:09:08;95698.56;;;8.79;54.26
68179;BME280;69812;42.632;23.440;2024-02-21T11:11:34;95691.41;;;9.09;53.88
68179;BME280;69812;42.632;23.440;2024-02-21T11:14:04;95702.50;;;9.20;54.09
68179;BME280;69812;42.632;23.440;2024-02-21T11:16:35;95696.22;;;9.24;53.44
68179;BME280;69812;42.632;23.440;2024-02-21T11:19:09;95679.84;;;9.03;52.84
68179;BME280;69812;42.632;23.440;2024-02-21T11:21:38;95680.84;;;9.24;52.72
68179;BME280;69812;42.632;23.440;2024-02-21T11:24:04;95690.09;;;9.50;54.01
68179;BME280;69812;42.632;23.440;2024-02-21T11:26:30;95672.06;;;9.51;51.87
68179;BME280;69812;42.632;23.440;2024-02-21T11:29:00;95689.94;;;9.75;50.91
68179;BME280;69812;42.632;23.440;2024-02-21T11:31:40;95665.59;;;10.26;51.27
68179;BME280;69812;42.632;23.440;2024-02-21T11:34:09;95674.78;;;10.95;49.72
68179;BME280;69812;42.632;23.440;2024-02-21T11:36:50;95657.72;;;11.05;49.88
68179;BME280;69812;42.632;23.440;2024-02-21T11:39:25;95664.44;;;11.17;49.56
68179;BME280;69812;42.632;23.440;2024-02-21T11:42:10;95664.13;;;10.78;47.42
68179;BME280;69812;42.632;23.440;2024-02-21T11:44:36;95658.38;;;10.20;49.07
68179;BME280;69812;42.632;23.440;2024-02-21T11:47:06;95664.28;;;9.86;50.12
68179;BME280;69812;42.632;23.440;2024-02-21T11:49:37;95638.09;;;9.94;50.46
68179;BME280;69812;42.632;23.440;2024-02-21T11:52:06;95642.81;;;10.55;48.40
68179;BME280;69812;42.632;23.440;2024-02-21T11:54:32;95648.34;;;10.39;45.86
68179;BME280;69812;42.632;23.440;2024-02-21T11:56:59;95645.81;;;10.60;46.46
68179;BME280;69812;42.632;23.440;2024-02-21T11:59:33;95630.03;;;10.44;45.48
68179;BME280;69812;42.632;23.440;2024-02-21T12:02:01;95637.13;;;10.84;44.08
68179;BME280;69812;42.632;23.440;2024-02-21T12:04:29;95636.28;;;10.95;44.81
68179;BME280;69812;42.632;23.440;2024-02-21T12:06:58;95625.94;;;11.06;43.21
68179;BME280;69812;42.632;23.440;2024-02-21T12:09:25;95621.91;;;10.60;44.69
68179;BME280;69812;42.632;23.440;2024-02-21T12:12:04;95626.16;;;10.27;45.25
68179;BME280;69812;42.632;23.440;2024-02-21T12:14:31;95637.84;;;10.31;46.73
68179;BME280;69812;42.632;23.440;2024-02-21T12:16:57;95632.16;;;10.05;46.91
68179;BME280;69812;42.632;23.440;2024-02-21T12:19:25;95624.31;;;10.40;47.19
68179;BME280;69812;42.632;23.440;2024-02-21T12:21:50;95623.81;;;10.46;48.09
68179;BME280;69812;42.632;23.440;2024-02-21T12:24:21;95614.97;;;10.28;46.44
68179;BME280;69812;42.632;23.440;2024-02-21T12:26:47;95611.41;;;9.74;47.67
68179;BME280;69812;42.632;23.440;2024-02-21T12:29:13;95611.50;;;9.95;46.94
68179;BME280;69812;42.632;23.440;2024-02-21T12:31:41;95616.66;;;9.73;47.36
68179;BME280;69812;42.632;23.440;2024-02-21T12:34:06;95626.44;;;9.90;47.46
68179;BME280;69812;42.632;23.440;2024-02-21T12:36:32;95609.88;;;9.60;48.69
68179;BME280;69812;42.632;23.440;2024-02-21T12:39:01;95610.56;;;9.51;49.43
68179;BME280;69812;42.632;23.440;2024-02-21T12:41:28;95613.44;;;9.24;49.96
68179;BME280;69812;42.632;23.440;2024-02-21T12:43:55;95615.59;;;9.06;51.08
68179;BME280;69812;42.632;23.440;2024-02-21T12:46:22;95611.41;;;9.05;52.16
68179;BME280;69812;42.632;23.440;2024-02-21T12:48:47;95604.88;;;9.01;51.38
68179;BME280;69812;42.632;23.440;2024-02-21T12:51:13;95598.63;;;8.70;52.05
68179;BME280;69812;42.632;23.440;2024-02-21T12:53:39;95598.25;;;8.98;52.51
68179;BME280;69812;42.632;23.440;2024-02-21T12:56:05;95597.19;;;8.90;51.81
68179;BME280;69812;42.632;23.440;2024-02-21T12:58:32;95605.59;;;9.03;51.42
68179;BME280;69812;42.632;23.440;2024-02-21T13:00:58;95597.59;;;9.19;50.35
68179;BME280;69812;42.632;23.440;2024-02-21T13:03:26;95608.19;;;9.14;50.80
68179;BME280;69812;42.632;23.440;2024-02-21T13:05:54;95598.91;;;9.36;51.57
68179;BME280;69812;42.632;23.440;2024-02-21T13:08:19;95600.56;;;9.48;50.64
68179;BME280;69812;42.632;23.440;2024-02-21T13:10:48;95590.88;;;9.29;50.20
68179;BME280;69812;42.632;23.440;2024-02-21T13:13:13;95604.38;;;9.31;50.49